createdAt,value
2017-06-09T00:00:11.466Z,11.4
2017-06-09T00:01:18.951Z,11.4
2017-06-09T00:02:26.788Z,11.4
2017-06-09T00:03:34.273Z,11.4
2017-06-09T00:04:56.362Z,11.4
2017-06-09T00:06:03.852Z,11.4
2017-06-09T00:07:11.335Z,11.4
2017-06-09T00:08:19.171Z,11.3
2017-06-09T00:09:28.066Z,11.3
2017-06-09T00:10:35.549Z,11.3
2017-06-09T00:11:43.024Z,11.3
2017-06-09T00:13:05.088Z,11.3
2017-06-09T00:14:12.922Z,11.3
2017-06-09T00:15:20.083Z,11.3
2017-06-09T00:16:27.572Z,11.2
2017-06-09T00:17:35.052Z,11.2
2017-06-09T00:18:42.547Z,11.2
2017-06-09T00:19:50.125Z,11.2
2017-06-09T00:20:57.269Z,11.2
2017-06-09T00:22:04.750Z,11.1
2017-06-09T00:23:12.233Z,11.1
2017-06-09T00:24:19.723Z,11.1
2017-06-09T00:25:27.310Z,11.1
2017-06-09T00:26:34.812Z,11.1
2017-06-09T00:27:41.961Z,11
2017-06-09T00:28:49.116Z,11
2017-06-09T00:29:56.627Z,11
2017-06-09T00:31:04.411Z,11
2017-06-09T00:32:11.890Z,11
2017-06-09T00:33:19.373Z,11
2017-06-09T00:34:26.854Z,10.9
2017-06-09T00:35:34.006Z,10.9
2017-06-09T00:36:41.784Z,10.9
2017-06-09T00:37:49.269Z,10.9
2017-06-09T00:38:56.749Z,10.9
2017-06-09T00:40:03.570Z,10.8
2017-06-09T00:41:11.053Z,10.8
2017-06-09T00:42:18.790Z,10.8
2017-06-09T00:43:25.613Z,10.8
2017-06-09T00:44:33.097Z,10.8
2017-06-09T00:45:40.578Z,10.8
2017-06-09T00:46:47.733Z,10.8
2017-06-09T00:47:55.470Z,10.8
2017-06-09T00:49:02.987Z,10.8
2017-06-09T00:50:10.463Z,10.8
2017-06-09T00:51:17.619Z,10.8
2017-06-09T00:52:25.096Z,10.8
2017-06-09T00:53:32.828Z,10.7
2017-06-09T00:54:40.308Z,10.7
2017-06-09T00:55:47.791Z,10.7
2017-06-09T00:56:55.276Z,10.7
2017-06-09T00:58:02.760Z,10.7
2017-06-09T00:59:10.495Z,10.7
2017-06-09T01:00:17.975Z,10.7
2017-06-09T01:01:25.453Z,10.6
2017-06-09T01:02:32.943Z,10.6
2017-06-09T01:03:40.423Z,10.6
2017-06-09T01:04:48.159Z,10.6
2017-06-09T01:05:55.641Z,10.6
2017-06-09T01:07:03.131Z,10.6
2017-06-09T01:08:10.609Z,10.6
2017-06-09T01:09:17.787Z,10.6
2017-06-09T01:10:25.368Z,10.6
2017-06-09T01:11:32.514Z,10.5
2017-06-09T01:12:39.672Z,10.5
2017-06-09T01:13:47.153Z,10.5
2017-06-09T01:14:54.634Z,10.6
2017-06-09T01:16:02.363Z,10.6
2017-06-09T01:17:09.842Z,10.6
2017-06-09T01:18:17.320Z,10.6
2017-06-09T01:19:24.802Z,10.6
2017-06-09T01:20:32.283Z,10.6
2017-06-09T01:21:40.015Z,10.5
2017-06-09T01:22:47.505Z,10.5
2017-06-09T01:23:54.987Z,10.5
2017-06-09T01:25:02.464Z,10.5
2017-06-09T01:26:09.941Z,10.5
2017-06-09T01:27:17.720Z,10.5
2017-06-09T01:28:24.877Z,10.5
2017-06-09T01:29:32.351Z,10.4
2017-06-09T01:30:39.494Z,10.4
2017-06-09T01:31:46.977Z,10.4
2017-06-09T01:32:54.762Z,10.4
2017-06-09T01:34:02.255Z,10.4
2017-06-09T01:35:09.739Z,10.3
2017-06-09T01:36:17.231Z,10.3
2017-06-09T01:37:24.712Z,10.3
2017-06-09T01:38:32.127Z,10.3
2017-06-09T01:39:39.287Z,10.3
2017-06-09T01:40:46.445Z,10.3
2017-06-09T01:41:53.929Z,10.3
2017-06-09T01:43:01.448Z,10.3
2017-06-09T01:44:09.171Z,10.3
2017-06-09T01:45:16.654Z,10.2
2017-06-09T01:46:24.138Z,10.3
2017-06-09T01:47:31.616Z,10.3
2017-06-09T01:48:39.094Z,10.2
2017-06-09T01:49:46.822Z,10.3
2017-06-09T01:50:54.305Z,10.2
2017-06-09T01:52:01.785Z,10.2
2017-06-09T01:53:09.263Z,10.2
2017-06-09T01:54:16.742Z,10.2
2017-06-09T01:55:24.472Z,10.2
2017-06-09T01:56:31.951Z,10.2
2017-06-09T01:57:39.437Z,10.2
2017-06-09T01:58:46.918Z,10.2
2017-06-09T01:59:54.400Z,10.2
2017-06-09T02:01:02.128Z,10.2
2017-06-09T02:02:09.282Z,10.2
2017-06-09T02:03:16.758Z,10.2
2017-06-09T02:04:24.239Z,10.2
2017-06-09T02:05:31.719Z,10.2
2017-06-09T02:06:39.455Z,10.2
2017-06-09T02:07:46.937Z,10.2
2017-06-09T02:08:54.087Z,10.2
2017-06-09T02:10:01.572Z,10.2
2017-06-09T02:11:08.395Z,10.2
2017-06-09T02:12:16.128Z,10.2
2017-06-09T02:13:23.609Z,10.2
2017-06-09T02:14:31.117Z,10.2
2017-06-09T02:15:38.607Z,10.2
2017-06-09T02:16:46.082Z,10.2
2017-06-09T02:17:53.811Z,10.2
2017-06-09T02:19:01.296Z,10.2
2017-06-09T02:20:09.009Z,10.2
2017-06-09T02:21:16.489Z,10.2
2017-06-09T02:22:23.967Z,10.1
2017-06-09T02:23:31.698Z,10.1
2017-06-09T02:24:39.176Z,10.1
2017-06-09T02:25:46.651Z,10.1
2017-06-09T02:26:54.129Z,10.1
2017-06-09T02:28:01.612Z,10
2017-06-09T02:29:09.016Z,10.1
2017-06-09T02:30:16.501Z,10.1
2017-06-09T02:31:23.325Z,10
2017-06-09T02:32:30.471Z,10
2017-06-09T02:33:37.947Z,10
2017-06-09T02:34:45.677Z,9.9
2017-06-09T02:35:53.159Z,9.9
2017-06-09T02:37:00.643Z,9.9
2017-06-09T02:38:08.124Z,9.8
2017-06-09T02:39:15.603Z,9.8
2017-06-09T02:40:23.387Z,9.8
2017-06-09T02:41:30.869Z,9.8
2017-06-09T02:42:38.347Z,9.8
2017-06-09T02:43:45.829Z,9.8
2017-06-09T02:44:53.319Z,9.8
2017-06-09T02:46:01.047Z,9.8
2017-06-09T02:47:08.197Z,9.8
2017-06-09T02:48:15.680Z,9.8
2017-06-09T02:49:23.157Z,9.8
2017-06-09T02:50:30.306Z,9.8
2017-06-09T02:51:38.045Z,9.8
2017-06-09T02:52:45.178Z,9.8
2017-06-09T02:53:52.661Z,9.8
2017-06-09T02:55:00.155Z,9.7
2017-06-09T02:56:07.633Z,9.7
2017-06-09T02:57:15.367Z,9.7
2017-06-09T02:58:23.051Z,9.7
2017-06-09T02:59:30.534Z,9.7
2017-06-09T03:00:38.020Z,9.7
2017-06-09T03:01:45.499Z,9.6
2017-06-09T03:02:53.237Z,9.7
2017-06-09T03:04:00.718Z,9.7
2017-06-09T03:05:08.436Z,9.6
2017-06-09T03:06:15.919Z,9.6
2017-06-09T03:07:23.397Z,9.6
2017-06-09T03:08:31.128Z,9.6
2017-06-09T03:09:38.286Z,9.6
2017-06-09T03:10:45.436Z,9.6
2017-06-09T03:11:52.596Z,9.6
2017-06-09T03:13:00.073Z,9.5
2017-06-09T03:14:07.802Z,9.5
2017-06-09T03:15:15.282Z,9.5
2017-06-09T03:16:22.762Z,9.6
2017-06-09T03:17:30.256Z,9.6
2017-06-09T03:18:37.734Z,9.6
2017-06-09T03:19:45.320Z,9.6
2017-06-09T03:20:52.798Z,9.5
2017-06-09T03:22:00.290Z,9.5
2017-06-09T03:23:07.772Z,9.5
2017-06-09T03:24:15.246Z,9.5
2017-06-09T03:25:23.030Z,9.5
2017-06-09T03:26:30.514Z,9.5
2017-06-09T03:27:37.992Z,9.5
2017-06-09T03:28:45.473Z,9.5
2017-06-09T03:29:52.955Z,9.5
2017-06-09T03:31:00.686Z,9.5
2017-06-09T03:32:08.164Z,9.5
2017-06-09T03:33:15.639Z,9.5
2017-06-09T03:34:23.117Z,9.5
2017-06-09T03:35:30.600Z,9.5
2017-06-09T03:36:38.363Z,9.5
2017-06-09T03:37:45.596Z,9.5
2017-06-09T03:38:53.082Z,9.5
2017-06-09T03:40:00.566Z,9.5
2017-06-09T03:41:07.720Z,9.5
2017-06-09T03:42:15.558Z,9.5
2017-06-09T03:43:23.034Z,9.5
2017-06-09T03:44:30.514Z,9.5
2017-06-09T03:45:38.005Z,9.5
2017-06-09T03:46:45.486Z,9.5
2017-06-09T03:47:53.309Z,9.5
2017-06-09T03:49:00.786Z,9.6
2017-06-09T03:50:07.938Z,9.6
2017-06-09T03:51:15.414Z,9.6
2017-06-09T03:52:22.926Z,9.6
2017-06-09T03:53:30.757Z,9.6
2017-06-09T03:54:38.465Z,9.6
2017-06-09T03:55:45.953Z,9.7
2017-06-09T03:56:53.428Z,9.7
2017-06-09T03:58:00.909Z,9.7
2017-06-09T03:59:08.759Z,9.7
2017-06-09T04:00:15.910Z,9.8
2017-06-09T04:01:23.747Z,9.8
2017-06-09T04:02:31.234Z,9.8
2017-06-09T04:03:38.726Z,9.8
2017-06-09T04:04:46.579Z,9.8
2017-06-09T04:05:54.065Z,9.8
2017-06-09T04:07:01.544Z,9.8
2017-06-09T04:08:09.026Z,9.8
2017-06-09T04:09:16.502Z,9.8
2017-06-09T04:10:24.335Z,9.8
2017-06-09T04:11:31.819Z,9.8
2017-06-09T04:12:39.296Z,9.9
2017-06-09T04:13:46.785Z,9.9
2017-06-09T04:14:54.264Z,9.9
2017-06-09T04:16:02.091Z,9.9
2017-06-09T04:17:09.253Z,9.9
2017-06-09T04:18:16.729Z,9.8
2017-06-09T04:19:24.205Z,9.9
2017-06-09T04:20:31.687Z,9.9
2017-06-09T04:21:39.184Z,9.8
2017-06-09T04:22:46.666Z,9.9
2017-06-09T04:23:54.149Z,9.9
2017-06-09T04:25:01.629Z,9.9
2017-06-09T04:26:09.112Z,10
2017-06-09T04:27:16.950Z,10
2017-06-09T04:28:24.429Z,10
2017-06-09T04:29:31.909Z,10
2017-06-09T04:30:39.382Z,10
2017-06-09T04:31:46.861Z,10.1
2017-06-09T04:32:54.697Z,10
2017-06-09T04:34:02.180Z,10.1
2017-06-09T04:35:09.660Z,10.1
2017-06-09T04:36:17.143Z,10.1
2017-06-09T04:37:24.627Z,10.2
2017-06-09T04:38:32.402Z,10.2
2017-06-09T04:39:39.882Z,10.3
2017-06-09T04:40:47.362Z,10.3
2017-06-09T04:41:54.511Z,10.4
2017-06-09T04:43:01.986Z,10.5
2017-06-09T04:44:09.817Z,10.5
2017-06-09T04:45:17.300Z,10.6
2017-06-09T04:46:24.784Z,10.6
2017-06-09T04:47:31.606Z,10.7
2017-06-09T04:48:39.084Z,10.8
2017-06-09T04:49:46.656Z,10.8
2017-06-09T04:50:54.146Z,10.8
2017-06-09T04:52:00.963Z,10.9
2017-06-09T04:53:08.113Z,10.9
2017-06-09T04:54:15.589Z,11
2017-06-09T04:55:23.367Z,11.1
2017-06-09T04:56:30.850Z,11.1
2017-06-09T04:57:38.371Z,11.2
2017-06-09T04:58:45.853Z,11.2
2017-06-09T04:59:53.336Z,11.2
2017-06-09T05:01:01.099Z,11.3
2017-06-09T05:02:08.584Z,11.3
2017-06-09T05:03:16.064Z,11.3
2017-06-09T05:04:23.551Z,11.3
2017-06-09T05:05:31.035Z,11.4
2017-06-09T05:06:38.764Z,11.4
2017-06-09T05:07:46.247Z,11.5
2017-06-09T05:08:53.395Z,11.5
2017-06-09T05:10:00.883Z,11.5
2017-06-09T05:11:08.363Z,11.6
2017-06-09T05:12:16.192Z,11.7
2017-06-09T05:13:24.076Z,11.8
2017-06-09T05:14:31.557Z,11.9
2017-06-09T05:15:39.059Z,12
2017-06-09T05:16:46.212Z,12.1
2017-06-09T05:17:53.716Z,12.2
2017-06-09T05:19:01.200Z,12.3
2017-06-09T05:20:08.674Z,12.3
2017-06-09T05:21:30.746Z,12.5
2017-06-09T05:22:38.221Z,12.6
2017-06-09T05:23:46.058Z,12.7
2017-06-09T05:24:53.535Z,12.8
2017-06-09T05:26:01.021Z,12.9
2017-06-09T05:27:08.501Z,13.1
2017-06-09T05:28:15.982Z,13.2
2017-06-09T05:29:23.815Z,13.4
2017-06-09T05:30:30.965Z,13.5
2017-06-09T05:31:38.443Z,13.7
2017-06-09T05:32:45.927Z,13.9
2017-06-09T05:33:53.074Z,14
2017-06-09T05:35:00.904Z,14.1
2017-06-09T05:36:08.435Z,14.1
2017-06-09T05:37:15.581Z,14.2
2017-06-09T05:38:23.061Z,14.3
2017-06-09T05:39:30.540Z,14.4
2017-06-09T05:40:38.368Z,14.5
2017-06-09T05:41:45.887Z,14.5
2017-06-09T05:42:53.069Z,14.6
2017-06-09T05:43:59.885Z,14.8
2017-06-09T05:45:07.040Z,14.9
2017-06-09T05:46:14.867Z,15
2017-06-09T05:47:22.348Z,15.2
2017-06-09T05:48:29.831Z,15.6
2017-06-09T05:49:37.307Z,15.8
2017-06-09T05:50:44.790Z,15.8
2017-06-09T05:51:52.613Z,15.8
2017-06-09T05:53:00.095Z,15.8
2017-06-09T05:54:07.575Z,15.9
2017-06-09T05:55:15.063Z,16
2017-06-09T05:56:22.212Z,16.1
2017-06-09T05:57:30.054Z,16.4
2017-06-09T05:58:37.541Z,16.7
2017-06-09T05:59:45.025Z,16.8
2017-06-09T06:00:52.506Z,16.9
2017-06-09T06:01:59.984Z,17
2017-06-09T06:03:07.817Z,17.1
2017-06-09T06:04:15.307Z,17.3
2017-06-09T06:05:22.793Z,17.4
2017-06-09T06:06:29.953Z,17.6
2017-06-09T06:07:37.442Z,17.7
2017-06-09T06:08:45.289Z,17.9
2017-06-09T06:09:52.774Z,18
2017-06-09T06:11:00.256Z,18.2
2017-06-09T06:12:07.738Z,18.2
2017-06-09T06:13:15.225Z,18.3
2017-06-09T06:14:37.645Z,18.6
2017-06-09T06:15:45.352Z,18.8
2017-06-09T06:16:53.060Z,19.1
2017-06-09T06:18:00.545Z,19.2
2017-06-09T06:19:08.038Z,19.4
2017-06-09T06:20:15.878Z,19.6
2017-06-09T06:21:23.370Z,19.6
2017-06-09T06:22:30.524Z,19.6
2017-06-09T06:23:38.022Z,19.6
2017-06-09T06:24:45.182Z,19.6
2017-06-09T06:25:53.048Z,19.6
2017-06-09T06:27:15.121Z,19.7
2017-06-09T06:28:22.614Z,19.8
2017-06-09T06:29:30.102Z,19.8
2017-06-09T06:30:37.584Z,19.9
2017-06-09T06:31:45.381Z,19.9
2017-06-09T06:32:52.864Z,20.1
2017-06-09T06:34:00.348Z,20.2
2017-06-09T06:35:07.842Z,20.2
2017-06-09T06:36:15.324Z,20.3
2017-06-09T06:37:22.909Z,20.2
2017-06-09T06:38:30.401Z,20.3
2017-06-09T06:39:37.886Z,20.2
2017-06-09T06:40:45.372Z,20.2
2017-06-09T06:41:52.864Z,20.5
2017-06-09T06:43:00.610Z,20.7
2017-06-09T06:44:08.099Z,20.9
2017-06-09T06:45:15.588Z,20.9
2017-06-09T06:46:23.894Z,20.9
2017-06-09T06:47:31.386Z,21
2017-06-09T06:48:39.175Z,21.2
2017-06-09T06:49:46.666Z,21.2
2017-06-09T06:50:54.190Z,21.1
2017-06-09T06:52:01.676Z,21.1
2017-06-09T06:53:08.835Z,21.1
2017-06-09T06:54:16.622Z,21.2
2017-06-09T06:55:24.107Z,21.4
2017-06-09T06:56:31.649Z,21.4
2017-06-09T06:57:38.851Z,21.3
2017-06-09T06:58:46.005Z,21.3
2017-06-09T06:59:53.741Z,21.6
2017-06-09T07:01:01.226Z,21.4
2017-06-09T07:02:08.380Z,21.2
2017-06-09T07:03:15.864Z,21.2
2017-06-09T07:04:23.353Z,21.2
2017-06-09T07:05:30.614Z,21.2
2017-06-09T07:06:38.332Z,21.3
2017-06-09T07:07:45.826Z,21.4
2017-06-09T07:08:53.317Z,21.3
2017-06-09T07:10:00.804Z,21.4
2017-06-09T07:11:08.396Z,21.4
2017-06-09T07:12:30.465Z,21.6
2017-06-09T07:13:37.955Z,21.8
2017-06-09T07:14:45.446Z,21.6
2017-06-09T07:15:52.927Z,21.6
2017-06-09T07:17:00.730Z,21.6
2017-06-09T07:18:08.251Z,21.8
2017-06-09T07:19:15.747Z,21.9
2017-06-09T07:20:23.233Z,21.9
2017-06-09T07:21:30.723Z,22
2017-06-09T07:22:38.458Z,22.2
2017-06-09T07:23:45.962Z,22.3
2017-06-09T07:24:53.449Z,22.5
2017-06-09T07:26:00.936Z,22.7
2017-06-09T07:27:08.455Z,22.9
2017-06-09T07:28:16.046Z,23.2
2017-06-09T07:29:38.118Z,23.5
2017-06-09T07:30:45.277Z,23.6
2017-06-09T07:31:52.763Z,23.8
2017-06-09T07:33:00.252Z,23.8
2017-06-09T07:34:08.032Z,23.3
2017-06-09T07:35:15.527Z,23.3
2017-06-09T07:36:23.017Z,23.3
2017-06-09T07:37:30.176Z,23.6
2017-06-09T07:38:37.672Z,24
2017-06-09T07:39:45.415Z,24.1
2017-06-09T07:40:52.910Z,24
2017-06-09T07:42:00.403Z,23.7
2017-06-09T07:43:07.901Z,23.6
2017-06-09T07:44:15.060Z,23.6
2017-06-09T07:45:22.648Z,23.6
2017-06-09T07:46:29.807Z,23.5
2017-06-09T07:47:37.320Z,23.4
2017-06-09T07:48:44.475Z,23.4
2017-06-09T07:49:51.630Z,23.6
2017-06-09T07:50:59.222Z,23.6
2017-06-09T07:52:06.709Z,23.7
2017-06-09T07:53:14.194Z,23.7
2017-06-09T07:54:21.352Z,23.6
2017-06-09T07:55:28.837Z,23.8
2017-06-09T07:56:36.586Z,23.7
2017-06-09T07:57:44.077Z,23.7
2017-06-09T07:58:51.572Z,23.8
2017-06-09T07:59:59.058Z,23.9
2017-06-09T08:01:06.551Z,23.9
2017-06-09T08:02:13.983Z,24.2
2017-06-09T08:03:21.473Z,24.1
2017-06-09T08:04:28.965Z,24.3
2017-06-09T08:05:36.467Z,24.7
2017-06-09T08:06:43.964Z,24.6
2017-06-09T08:07:51.555Z,24.5
2017-06-09T08:08:59.056Z,24.6
2017-06-09T08:10:06.552Z,24.7
2017-06-09T08:11:13.707Z,24.5
2017-06-09T08:12:21.281Z,24.4
2017-06-09T08:13:29.064Z,24.6
2017-06-09T08:14:36.557Z,24.5
2017-06-09T08:15:44.051Z,24.5
2017-06-09T08:16:51.546Z,24.4
2017-06-09T08:17:59.036Z,24.4
2017-06-09T08:19:06.630Z,24.2
2017-06-09T08:20:13.799Z,24.2
2017-06-09T08:21:21.289Z,24.3
2017-06-09T08:22:28.778Z,24.5
2017-06-09T08:23:36.274Z,24.8
2017-06-09T08:24:44.015Z,25.2
2017-06-09T08:25:51.501Z,25.3
2017-06-09T08:27:13.575Z,25.2
2017-06-09T08:28:21.062Z,25
2017-06-09T08:29:28.552Z,24.7
2017-06-09T08:30:36.142Z,24.6
2017-06-09T08:31:43.633Z,24.7
2017-06-09T08:32:51.118Z,24.5
2017-06-09T08:33:58.610Z,24.4
2017-06-09T08:35:06.094Z,24.4
2017-06-09T08:36:13.693Z,24.5
2017-06-09T08:37:21.178Z,24.7
2017-06-09T08:38:28.665Z,24.7
2017-06-09T08:39:36.167Z,24.6
2017-06-09T08:40:43.684Z,24.6
2017-06-09T08:41:51.272Z,24.3
2017-06-09T08:42:58.763Z,24.1
2017-06-09T08:44:06.256Z,24.2
2017-06-09T08:45:13.749Z,24.1
2017-06-09T08:46:21.238Z,24.1
2017-06-09T08:47:28.499Z,24.1
2017-06-09T08:48:35.988Z,24.1
2017-06-09T08:49:43.483Z,24.3
2017-06-09T08:50:50.977Z,24.5
2017-06-09T08:51:58.467Z,24.7
2017-06-09T08:53:06.054Z,24.8
2017-06-09T08:54:13.541Z,24.9
2017-06-09T08:55:20.697Z,24.7
2017-06-09T08:56:28.191Z,24.8
2017-06-09T08:57:35.687Z,25
2017-06-09T08:58:42.979Z,25
2017-06-09T08:59:50.470Z,25
2017-06-09T09:00:57.964Z,25
2017-06-09T09:02:05.453Z,25
2017-06-09T09:03:12.940Z,24.8
2017-06-09T09:04:20.680Z,24.7
2017-06-09T09:05:28.175Z,24.8
2017-06-09T09:06:35.666Z,24.8
2017-06-09T09:07:43.159Z,24.8
2017-06-09T09:08:50.649Z,24.8
2017-06-09T09:09:58.391Z,24.8
2017-06-09T09:11:05.882Z,24.7
2017-06-09T09:12:13.371Z,24.7
2017-06-09T09:13:20.861Z,24.7
2017-06-09T09:14:28.352Z,25
2017-06-09T09:15:36.145Z,25.2
2017-06-09T09:16:43.631Z,25.4
2017-06-09T09:17:50.795Z,25.4
2017-06-09T09:18:58.303Z,25.4
2017-06-09T09:20:05.468Z,25.5
2017-06-09T09:21:13.068Z,25.1
2017-06-09T09:22:20.565Z,25
2017-06-09T09:23:28.078Z,25
2017-06-09T09:24:35.249Z,24.8
2017-06-09T09:25:42.742Z,24.8
2017-06-09T09:26:50.331Z,25
2017-06-09T09:27:57.819Z,25.1
2017-06-09T09:29:05.312Z,25.1
2017-06-09T09:30:12.803Z,25
2017-06-09T09:31:20.294Z,25.1
2017-06-09T09:32:28.043Z,25.3
2017-06-09T09:33:35.193Z,25.3
2017-06-09T09:34:42.682Z,25.4
2017-06-09T09:35:50.198Z,25.5
2017-06-09T09:36:57.687Z,25.1
2017-06-09T09:38:05.273Z,25.2
2017-06-09T09:39:12.765Z,24.9
2017-06-09T09:40:19.929Z,24.9
2017-06-09T09:41:27.092Z,24.8
2017-06-09T09:42:34.580Z,24.8
2017-06-09T09:43:42.314Z,24.7
2017-06-09T09:44:49.812Z,24.6
2017-06-09T09:45:57.299Z,24.5
2017-06-09T09:47:04.800Z,24.4
2017-06-09T09:48:12.297Z,24.3
2017-06-09T09:49:20.087Z,24.4
2017-06-09T09:50:27.580Z,24.4
2017-06-09T09:51:35.070Z,24.6
2017-06-09T09:52:42.219Z,24.8
2017-06-09T09:53:49.719Z,25.1
2017-06-09T09:54:57.512Z,25.3
2017-06-09T09:56:04.995Z,25.2
2017-06-09T09:57:12.481Z,25.1
2017-06-09T09:58:19.982Z,25.2
2017-06-09T09:59:27.481Z,25.3
2017-06-09T10:00:35.234Z,25.5
2017-06-09T10:01:42.724Z,25.6
2017-06-09T10:02:50.216Z,25.8
2017-06-09T10:03:57.703Z,25.9
2017-06-09T10:05:05.201Z,26
2017-06-09T10:06:12.943Z,26.2
2017-06-09T10:07:20.430Z,26.5
2017-06-09T10:08:27.913Z,26.9
2017-06-09T10:09:35.417Z,26.8
2017-06-09T10:10:42.800Z,26.8
2017-06-09T10:11:50.399Z,26.6
2017-06-09T10:12:57.885Z,26.5
2017-06-09T10:14:05.372Z,26.5
2017-06-09T10:15:12.541Z,26.5
2017-06-09T10:16:20.029Z,26.4
2017-06-09T10:17:27.621Z,26.3
2017-06-09T10:18:34.789Z,26.4
2017-06-09T10:19:42.281Z,26.4
2017-06-09T10:20:49.440Z,26.2
2017-06-09T10:21:56.606Z,26.1
2017-06-09T10:23:04.348Z,26
2017-06-09T10:24:11.833Z,25.9
2017-06-09T10:25:19.350Z,26
2017-06-09T10:26:26.843Z,26.2
2017-06-09T10:27:34.343Z,26.4
2017-06-09T10:28:41.812Z,26.7
2017-06-09T10:29:49.346Z,27
2017-06-09T10:30:56.829Z,27.1
2017-06-09T10:32:04.322Z,26.9
2017-06-09T10:33:11.813Z,26.6
2017-06-09T10:34:19.662Z,26.3
2017-06-09T10:35:27.149Z,26.4
2017-06-09T10:36:34.641Z,26.8
2017-06-09T10:37:42.135Z,27.2
2017-06-09T10:38:49.651Z,27.4
2017-06-09T10:39:57.383Z,27.3
2017-06-09T10:41:04.553Z,27
2017-06-09T10:42:12.058Z,27.1
2017-06-09T10:43:19.553Z,27.2
2017-06-09T10:44:27.066Z,27
2017-06-09T10:45:34.681Z,26.6
2017-06-09T10:46:42.168Z,26.7
2017-06-09T10:47:49.658Z,26.3
2017-06-09T10:48:57.154Z,26.3
2017-06-09T10:50:04.648Z,26.4
2017-06-09T10:51:12.065Z,26.4
2017-06-09T10:52:19.569Z,26.5
2017-06-09T10:53:27.059Z,26.6
2017-06-09T10:54:34.560Z,26.8
2017-06-09T10:55:42.052Z,26.5
2017-06-09T10:57:04.427Z,26.6
2017-06-09T10:58:11.648Z,26.7
2017-06-09T10:59:19.144Z,26.8
2017-06-09T11:00:26.642Z,26.7
2017-06-09T11:01:34.137Z,26.6
2017-06-09T11:02:41.992Z,26.6
2017-06-09T11:03:49.489Z,26.5
2017-06-09T11:04:56.995Z,26.6
2017-06-09T11:06:04.495Z,26.6
2017-06-09T11:07:11.991Z,26.6
2017-06-09T11:08:19.273Z,26.6
2017-06-09T11:09:26.769Z,26.5
2017-06-09T11:10:34.271Z,26.8
2017-06-09T11:11:41.774Z,26.9
2017-06-09T11:12:49.263Z,26.9
2017-06-09T11:13:56.745Z,26.8
2017-06-09T11:15:04.241Z,26.8
2017-06-09T11:16:11.735Z,26.5
2017-06-09T11:17:19.230Z,26.1
2017-06-09T11:18:26.385Z,26.1
2017-06-09T11:19:33.900Z,26
2017-06-09T11:20:41.394Z,26.1
2017-06-09T11:21:48.884Z,26.2
2017-06-09T11:22:56.373Z,26.2
2017-06-09T11:24:03.863Z,26.3
2017-06-09T11:25:11.699Z,26.2
2017-06-09T11:26:19.186Z,26.1
2017-06-09T11:27:26.348Z,26.1
2017-06-09T11:28:33.842Z,26.3
2017-06-09T11:29:41.330Z,26.4
2017-06-09T11:30:49.174Z,26.5
2017-06-09T11:31:56.662Z,26.5
2017-06-09T11:33:03.823Z,26.4
2017-06-09T11:34:11.310Z,26.4
2017-06-09T11:35:18.807Z,26.3
2017-06-09T11:36:26.642Z,26.1
2017-06-09T11:37:34.131Z,26.2
2017-06-09T11:38:41.620Z,26.2
2017-06-09T11:39:49.110Z,25.9
2017-06-09T11:40:56.595Z,25.8
2017-06-09T11:42:04.437Z,25.9
2017-06-09T11:43:11.931Z,26
2017-06-09T11:44:19.420Z,26
2017-06-09T11:45:26.915Z,26
2017-06-09T11:46:34.405Z,26
2017-06-09T11:47:42.242Z,25.8
2017-06-09T11:48:49.636Z,26.1
2017-06-09T11:49:57.113Z,26.1
2017-06-09T11:51:04.603Z,26
2017-06-09T11:52:12.096Z,26.1
2017-06-09T11:53:19.883Z,26
2017-06-09T11:54:27.376Z,25.8
2017-06-09T11:55:34.872Z,25.7
2017-06-09T11:56:42.369Z,25.6
2017-06-09T11:57:49.866Z,25.7
2017-06-09T11:58:57.457Z,25.6
2017-06-09T12:00:04.947Z,25.6
2017-06-09T12:01:12.438Z,25.7
2017-06-09T12:02:19.599Z,25.9
2017-06-09T12:03:27.085Z,25.9
2017-06-09T12:04:34.831Z,26
2017-06-09T12:05:42.331Z,26.2
2017-06-09T12:06:49.826Z,26.2
2017-06-09T12:07:57.320Z,26.1
2017-06-09T12:09:04.543Z,25.8
2017-06-09T12:10:11.815Z,25.8
2017-06-09T12:11:18.982Z,25.6
2017-06-09T12:12:26.474Z,25.4
2017-06-09T12:13:33.647Z,25.3
2017-06-09T12:14:41.136Z,25.3
2017-06-09T12:15:48.930Z,25.5
2017-06-09T12:16:56.101Z,25.4
2017-06-09T12:18:03.261Z,25.5
2017-06-09T12:19:10.431Z,25.4
2017-06-09T12:20:17.951Z,25.6
2017-06-09T12:21:25.543Z,25.5
2017-06-09T12:22:33.031Z,25.3
2017-06-09T12:23:40.189Z,25.2
2017-06-09T12:24:47.677Z,25
2017-06-09T12:25:55.176Z,24.6
2017-06-09T12:27:02.770Z,24.3
2017-06-09T12:28:10.269Z,24.2
2017-06-09T12:29:17.756Z,24
2017-06-09T12:30:25.250Z,24
2017-06-09T12:31:32.741Z,23.9
2017-06-09T12:32:40.335Z,23.7
2017-06-09T12:33:47.827Z,23.8
2017-06-09T12:34:55.315Z,23.6
2017-06-09T12:36:02.805Z,23.7
2017-06-09T12:37:10.299Z,23.6
2017-06-09T12:38:17.706Z,23.6
2017-06-09T12:39:25.199Z,23.8
2017-06-09T12:40:32.691Z,24
2017-06-09T12:41:40.179Z,23.9
2017-06-09T12:42:47.671Z,24
2017-06-09T12:43:55.465Z,24
2017-06-09T12:45:02.959Z,24
2017-06-09T12:46:10.118Z,24
2017-06-09T12:47:17.606Z,23.8
2017-06-09T12:48:25.096Z,23.7
2017-06-09T12:49:32.898Z,23.6
2017-06-09T12:50:40.392Z,23.6
2017-06-09T12:51:47.307Z,23.5
2017-06-09T12:52:54.803Z,23.3
2017-06-09T12:54:02.294Z,23.1
2017-06-09T12:55:10.096Z,22.8
2017-06-09T12:56:17.592Z,22.7
2017-06-09T12:57:24.760Z,22.5
2017-06-09T12:58:31.915Z,22.3
2017-06-09T12:59:39.404Z,22.3
2017-06-09T13:00:46.922Z,22.2
2017-06-09T13:01:54.408Z,22.1
2017-06-09T13:03:01.898Z,22
2017-06-09T13:04:09.057Z,22
2017-06-09T13:05:16.549Z,21.8
2017-06-09T13:06:24.007Z,21.7
2017-06-09T13:07:31.501Z,21.8
2017-06-09T13:08:38.343Z,22
2017-06-09T13:09:45.827Z,22
2017-06-09T13:10:53.314Z,22.1
2017-06-09T13:12:00.931Z,22.1
2017-06-09T13:13:08.413Z,22.1
2017-06-09T13:14:15.906Z,22.1
2017-06-09T13:15:23.397Z,22.1
2017-06-09T13:16:30.566Z,22.2
2017-06-09T13:17:38.164Z,22.3
2017-06-09T13:18:45.654Z,22.2
2017-06-09T13:19:53.151Z,22
2017-06-09T13:21:00.313Z,21.6
2017-06-09T13:22:07.811Z,21.6
2017-06-09T13:23:15.078Z,21.5
2017-06-09T13:24:22.798Z,21.5
2017-06-09T13:25:30.291Z,21.6
2017-06-09T13:26:37.781Z,21.7
2017-06-09T13:27:45.270Z,21.6
2017-06-09T13:28:52.858Z,21.7
2017-06-09T13:30:00.010Z,21.8
2017-06-09T13:31:07.502Z,21.9
2017-06-09T13:32:14.654Z,21.9
2017-06-09T13:33:22.169Z,21.8
2017-06-09T13:34:29.903Z,21.5
2017-06-09T13:35:37.387Z,21.4
2017-06-09T13:36:44.872Z,21.4
2017-06-09T13:37:52.031Z,21.2
2017-06-09T13:38:59.519Z,21.1
2017-06-09T13:40:07.268Z,21
2017-06-09T13:41:14.761Z,20.9
2017-06-09T13:42:21.914Z,20.9
2017-06-09T13:43:29.638Z,20.9
2017-06-09T13:44:37.126Z,20.9
2017-06-09T13:45:44.725Z,20.7
2017-06-09T13:46:51.883Z,20.5
2017-06-09T13:47:59.043Z,20.6
2017-06-09T13:49:06.527Z,20.4
2017-06-09T13:50:14.020Z,20.4
2017-06-09T13:51:21.603Z,20.4
2017-06-09T13:52:29.096Z,20.4
2017-06-09T13:53:36.587Z,20.4
2017-06-09T13:54:44.072Z,20.3
2017-06-09T13:55:50.914Z,20.3
2017-06-09T13:56:58.189Z,20.3
2017-06-09T13:58:05.677Z,20.3
2017-06-09T13:59:13.171Z,20.3
2017-06-09T14:00:20.661Z,20.2
2017-06-09T14:01:28.154Z,20.2
2017-06-09T14:02:35.950Z,20.1
2017-06-09T14:03:43.437Z,20.1
2017-06-09T14:04:50.930Z,20.1
2017-06-09T14:05:58.410Z,19.9
2017-06-09T14:07:05.565Z,19.9
2017-06-09T14:08:13.026Z,19.9
2017-06-09T14:09:20.507Z,19.8
2017-06-09T14:10:27.999Z,19.8
2017-06-09T14:11:35.192Z,19.7
2017-06-09T14:12:42.682Z,19.6
2017-06-09T14:13:50.471Z,19.7
2017-06-09T14:14:57.960Z,19.7
2017-06-09T14:16:05.452Z,19.8
2017-06-09T14:17:12.940Z,19.9
2017-06-09T14:18:20.424Z,20
2017-06-09T14:19:28.216Z,20.2
2017-06-09T14:20:35.708Z,20.3
2017-06-09T14:21:43.189Z,20.3
2017-06-09T14:23:05.265Z,20.4
2017-06-09T14:24:12.753Z,20.4
2017-06-09T14:25:20.533Z,20.2
2017-06-09T14:26:28.029Z,20.2
2017-06-09T14:27:35.515Z,20.4
2017-06-09T14:28:42.682Z,20.5
2017-06-09T14:29:50.173Z,20.7
2017-06-09T14:30:57.960Z,21
2017-06-09T14:32:05.120Z,21
2017-06-09T14:33:12.606Z,21
2017-06-09T14:34:20.096Z,21.2
2017-06-09T14:35:27.582Z,21.2
2017-06-09T14:36:35.367Z,21
2017-06-09T14:37:42.526Z,20.7
2017-06-09T14:38:50.013Z,20.8
2017-06-09T14:39:57.505Z,20.8
2017-06-09T14:41:04.990Z,20.9
2017-06-09T14:42:12.774Z,21
2017-06-09T14:43:20.264Z,21.1
2017-06-09T14:44:27.762Z,21.1
2017-06-09T14:45:35.248Z,21.1
2017-06-09T14:46:42.608Z,21
2017-06-09T14:47:50.401Z,21
2017-06-09T14:48:57.889Z,21.1
2017-06-09T14:50:05.049Z,21.3
2017-06-09T14:51:12.214Z,21.7
2017-06-09T14:52:19.708Z,22.1
2017-06-09T14:53:27.493Z,22.4
2017-06-09T14:54:34.977Z,22.9
2017-06-09T14:55:42.469Z,22.9
2017-06-09T14:56:49.960Z,22.8
2017-06-09T14:57:57.441Z,22.8
2017-06-09T14:59:05.229Z,23.2
2017-06-09T15:00:12.719Z,23.3
2017-06-09T15:01:19.875Z,23.3
2017-06-09T15:02:27.372Z,23.1
2017-06-09T15:03:34.862Z,22.9
2017-06-09T15:04:42.312Z,22.7
2017-06-09T15:05:49.471Z,22.7
2017-06-09T15:06:56.957Z,22.6
2017-06-09T15:08:04.442Z,22.5
2017-06-09T15:09:11.929Z,22.5